LBIA

Bezmer Air Base

Airport
ICAO code
LBIA
IATA Code
JAM
Summary
ICAO Region
EUR
ICAO Territory
Location

Bezmer, Yambol

Serving
Yambol
Elevation
509 ft
Coordinates
42° 27' 17" N , 26° 21' 8" E
KCC
Metar
LBIA 201600Z 10014KT 9999 FEW100 35/14 Q1008

Bezmer Air Base is an air base for the Bulgarian Air Force. The base is situated in the eastern part of the Upper Thracian Lowland, in Yambol Oblast.

Climatology

Humid continental climate (Köppen climate classification Dfb)

Airport map

Aerial View

SKYbrary Partners:

Safety knowledge contributed by: